sensor_id;sensor_type;location;lat;lon;timestamp;P1;durP1;ratioP1;P2;durP2;ratioP2
38851;SDS011;24605;50.092;9.182;2022-12-29T00:01:51;3.75;;;1.80;;
38851;SDS011;24605;50.092;9.182;2022-12-29T00:04:19;4.30;;;1.60;;
38851;SDS011;24605;50.092;9.182;2022-12-29T00:06:45;3.92;;;1.80;;
38851;SDS011;24605;50.092;9.182;2022-12-29T00:09:12;4.10;;;1.85;;
38851;SDS011;24605;50.092;9.182;2022-12-29T00:11:40;5.10;;;1.83;;
38851;SDS011;24605;50.092;9.182;2022-12-29T00:14:07;4.03;;;1.73;;
38851;SDS011;24605;50.092;9.182;2022-12-29T00:16:52;5.35;;;1.35;;
38851;SDS011;24605;50.092;9.182;2022-12-29T00:19:20;7.25;;;2.15;;
38851;SDS011;24605;50.092;9.182;2022-12-29T00:22:04;5.28;;;1.98;;
38851;SDS011;24605;50.092;9.182;2022-12-29T00:27:33;4.15;;;1.58;;
38851;SDS011;24605;50.092;9.182;2022-12-29T00:30:17;5.18;;;1.80;;
38851;SDS011;24605;50.092;9.182;2022-12-29T00:33:15;7.28;;;1.85;;
38851;SDS011;24605;50.092;9.182;2022-12-29T00:36:02;3.40;;;1.50;;
38851;SDS011;24605;50.092;9.182;2022-12-29T00:38:31;3.42;;;1.50;;
38851;SDS011;24605;50.092;9.182;2022-12-29T00:41:19;5.28;;;1.55;;
38851;SDS011;24605;50.092;9.182;2022-12-29T00:44:03;5.93;;;1.60;;
38851;SDS011;24605;50.092;9.182;2022-12-29T00:46:35;4.63;;;1.40;;
38851;SDS011;24605;50.092;9.182;2022-12-29T00:49:02;3.95;;;1.67;;
38851;SDS011;24605;50.092;9.182;2022-12-29T00:54:15;4.20;;;1.90;;
38851;SDS011;24605;50.092;9.182;2022-12-29T00:56:42;4.18;;;1.67;;
38851;SDS011;24605;50.092;9.182;2022-12-29T00:59:09;4.60;;;1.45;;
38851;SDS011;24605;50.092;9.182;2022-12-29T01:01:36;4.60;;;1.50;;
38851;SDS011;24605;50.092;9.182;2022-12-29T01:04:03;3.20;;;1.50;;
38851;SDS011;24605;50.092;9.182;2022-12-29T01:06:30;4.43;;;1.92;;
38851;SDS011;24605;50.092;9.182;2022-12-29T01:08:59;4.70;;;1.75;;
38851;SDS011;24605;50.092;9.182;2022-12-29T01:11:43;6.43;;;1.98;;
38851;SDS011;24605;50.092;9.182;2022-12-29T01:14:09;3.65;;;1.60;;
38851;SDS011;24605;50.092;9.182;2022-12-29T01:16:36;4.43;;;2.10;;
38851;SDS011;24605;50.092;9.182;2022-12-29T01:19:02;4.03;;;1.80;;
38851;SDS011;24605;50.092;9.182;2022-12-29T01:21:29;4.85;;;2.00;;
38851;SDS011;24605;50.092;9.182;2022-12-29T01:23:56;4.60;;;2.05;;
38851;SDS011;24605;50.092;9.182;2022-12-29T01:26:24;3.95;;;2.05;;
38851;SDS011;24605;50.092;9.182;2022-12-29T01:28:51;4.78;;;2.10;;
38851;SDS011;24605;50.092;9.182;2022-12-29T01:31:18;4.97;;;1.70;;
38851;SDS011;24605;50.092;9.182;2022-12-29T01:33:44;4.50;;;2.13;;
38851;SDS011;24605;50.092;9.182;2022-12-29T01:36:12;5.78;;;2.30;;
38851;SDS011;24605;50.092;9.182;2022-12-29T01:38:40;4.90;;;1.75;;
38851;SDS011;24605;50.092;9.182;2022-12-29T01:41:08;4.95;;;2.33;;
38851;SDS011;24605;50.092;9.182;2022-12-29T01:43:40;6.22;;;2.35;;
38851;SDS011;24605;50.092;9.182;2022-12-29T01:46:11;5.18;;;2.30;;
38851;SDS011;24605;50.092;9.182;2022-12-29T01:48:45;6.95;;;2.22;;
38851;SDS011;24605;50.092;9.182;2022-12-29T01:51:12;4.85;;;2.20;;
38851;SDS011;24605;50.092;9.182;2022-12-29T01:53:39;5.05;;;2.10;;
38851;SDS011;24605;50.092;9.182;2022-12-29T01:56:07;6.32;;;2.40;;
38851;SDS011;24605;50.092;9.182;2022-12-29T01:58:39;6.07;;;2.50;;
38851;SDS011;24605;50.092;9.182;2022-12-29T02:01:10;6.55;;;2.40;;
38851;SDS011;24605;50.092;9.182;2022-12-29T02:03:37;6.65;;;2.78;;
38851;SDS011;24605;50.092;9.182;2022-12-29T02:06:04;6.63;;;2.35;;
38851;SDS011;24605;50.092;9.182;2022-12-29T02:08:36;7.45;;;2.83;;
38851;SDS011;24605;50.092;9.182;2022-12-29T02:11:04;5.32;;;2.58;;
38851;SDS011;24605;50.092;9.182;2022-12-29T02:13:31;7.78;;;2.40;;
38851;SDS011;24605;50.092;9.182;2022-12-29T02:16:01;5.93;;;2.50;;
38851;SDS011;24605;50.092;9.182;2022-12-29T02:18:41;8.00;;;2.60;;
38851;SDS011;24605;50.092;9.182;2022-12-29T02:21:23;4.15;;;1.90;;
38851;SDS011;24605;50.092;9.182;2022-12-29T02:24:21;6.03;;;2.47;;
38851;SDS011;24605;50.092;9.182;2022-12-29T02:30:05;4.40;;;2.22;;
38851;SDS011;24605;50.092;9.182;2022-12-29T02:32:38;4.30;;;2.17;;
38851;SDS011;24605;50.092;9.182;2022-12-29T02:35:12;4.68;;;2.20;;
38851;SDS011;24605;50.092;9.182;2022-12-29T02:37:48;7.32;;;2.30;;
38851;SDS011;24605;50.092;9.182;2022-12-29T02:40:27;7.10;;;2.50;;
38851;SDS011;24605;50.092;9.182;2022-12-29T02:43:04;4.80;;;2.00;;
38851;SDS011;24605;50.092;9.182;2022-12-29T02:45:43;3.90;;;2.20;;
38851;SDS011;24605;50.092;9.182;2022-12-29T02:48:18;3.60;;;2.00;;
38851;SDS011;24605;50.092;9.182;2022-12-29T02:50:50;6.53;;;2.03;;
38851;SDS011;24605;50.092;9.182;2022-12-29T02:53:23;5.43;;;1.90;;
38851;SDS011;24605;50.092;9.182;2022-12-29T02:56:06;3.97;;;1.75;;
38851;SDS011;24605;50.092;9.182;2022-12-29T02:58:32;4.47;;;1.80;;
38851;SDS011;24605;50.092;9.182;2022-12-29T03:01:03;3.67;;;1.90;;
38851;SDS011;24605;50.092;9.182;2022-12-29T03:03:45;5.13;;;1.65;;
38851;SDS011;24605;50.092;9.182;2022-12-29T03:09:19;3.92;;;1.80;;
38851;SDS011;24605;50.092;9.182;2022-12-29T03:11:56;4.00;;;1.63;;
38851;SDS011;24605;50.092;9.182;2022-12-29T03:14:37;3.40;;;1.50;;
38851;SDS011;24605;50.092;9.182;2022-12-29T03:17:29;2.80;;;1.50;;
38851;SDS011;24605;50.092;9.182;2022-12-29T03:20:06;4.20;;;1.73;;
38851;SDS011;24605;50.092;9.182;2022-12-29T03:22:35;2.88;;;1.55;;
38851;SDS011;24605;50.092;9.182;2022-12-29T03:25:08;2.55;;;1.20;;
38851;SDS011;24605;50.092;9.182;2022-12-29T03:27:36;2.53;;;1.30;;
38851;SDS011;24605;50.092;9.182;2022-12-29T03:30:07;3.78;;;1.17;;
38851;SDS011;24605;50.092;9.182;2022-12-29T03:32:36;3.20;;;1.40;;
38851;SDS011;24605;50.092;9.182;2022-12-29T03:35:08;3.42;;;1.23;;
38851;SDS011;24605;50.092;9.182;2022-12-29T03:37:39;3.78;;;1.35;;
38851;SDS011;24605;50.092;9.182;2022-12-29T03:40:09;3.33;;;1.10;;
38851;SDS011;24605;50.092;9.182;2022-12-29T03:42:36;3.92;;;1.17;;
38851;SDS011;24605;50.092;9.182;2022-12-29T03:45:04;2.92;;;1.20;;
38851;SDS011;24605;50.092;9.182;2022-12-29T03:47:32;3.83;;;1.30;;
38851;SDS011;24605;50.092;9.182;2022-12-29T03:49:59;2.70;;;1.27;;
38851;SDS011;24605;50.092;9.182;2022-12-29T03:52:27;3.45;;;1.02;;
38851;SDS011;24605;50.092;9.182;2022-12-29T03:54:53;2.08;;;1.00;;
38851;SDS011;24605;50.092;9.182;2022-12-29T03:57:19;2.45;;;1.08;;
38851;SDS011;24605;50.092;9.182;2022-12-29T03:59:46;2.38;;;1.15;;
38851;SDS011;24605;50.092;9.182;2022-12-29T04:02:13;2.55;;;0.98;;
38851;SDS011;24605;50.092;9.182;2022-12-29T04:04:39;4.15;;;1.20;;
38851;SDS011;24605;50.092;9.182;2022-12-29T04:07:05;5.15;;;1.25;;
38851;SDS011;24605;50.092;9.182;2022-12-29T04:09:33;2.30;;;1.17;;
38851;SDS011;24605;50.092;9.182;2022-12-29T04:12:00;4.03;;;1.50;;
38851;SDS011;24605;50.092;9.182;2022-12-29T04:14:26;3.88;;;1.30;;
38851;SDS011;24605;50.092;9.182;2022-12-29T04:16:52;2.40;;;1.05;;
38851;SDS011;24605;50.092;9.182;2022-12-29T04:19:19;3.00;;;1.15;;
38851;SDS011;24605;50.092;9.182;2022-12-29T04:21:45;4.47;;;1.23;;
38851;SDS011;24605;50.092;9.182;2022-12-29T04:24:11;3.40;;;1.00;;
38851;SDS011;24605;50.092;9.182;2022-12-29T04:26:39;3.78;;;1.13;;
38851;SDS011;24605;50.092;9.182;2022-12-29T04:29:06;2.72;;;1.27;;
38851;SDS011;24605;50.092;9.182;2022-12-29T04:31:32;3.78;;;1.30;;
38851;SDS011;24605;50.092;9.182;2022-12-29T04:33:59;2.75;;;1.17;;
38851;SDS011;24605;50.092;9.182;2022-12-29T04:36:25;3.28;;;1.20;;
38851;SDS011;24605;50.092;9.182;2022-12-29T04:38:52;3.25;;;1.17;;
38851;SDS011;24605;50.092;9.182;2022-12-29T04:41:18;3.85;;;1.58;;
38851;SDS011;24605;50.092;9.182;2022-12-29T04:43:46;2.85;;;1.20;;
38851;SDS011;24605;50.092;9.182;2022-12-29T04:46:12;2.78;;;1.20;;
38851;SDS011;24605;50.092;9.182;2022-12-29T04:48:39;2.65;;;1.20;;
38851;SDS011;24605;50.092;9.182;2022-12-29T04:51:05;2.90;;;1.38;;
38851;SDS011;24605;50.092;9.182;2022-12-29T04:53:32;3.55;;;1.45;;
38851;SDS011;24605;50.092;9.182;2022-12-29T04:55:58;5.22;;;1.48;;
38851;SDS011;24605;50.092;9.182;2022-12-29T04:58:25;3.83;;;1.55;;
38851;SDS011;24605;50.092;9.182;2022-12-29T05:00:53;4.82;;;1.25;;
38851;SDS011;24605;50.092;9.182;2022-12-29T05:03:19;5.03;;;1.55;;
38851;SDS011;24605;50.092;9.182;2022-12-29T05:05:46;4.20;;;1.50;;
38851;SDS011;24605;50.092;9.182;2022-12-29T05:08:12;4.50;;;1.10;;
38851;SDS011;24605;50.092;9.182;2022-12-29T06:15:19;3.22;;;1.00;;
38851;SDS011;24605;50.092;9.182;2022-12-29T06:17:46;3.88;;;1.42;;
38851;SDS011;24605;50.092;9.182;2022-12-29T06:20:12;3.53;;;1.23;;
38851;SDS011;24605;50.092;9.182;2022-12-29T06:22:39;3.33;;;1.23;;
38851;SDS011;24605;50.092;9.182;2022-12-29T06:25:06;3.25;;;1.25;;
38851;SDS011;24605;50.092;9.182;2022-12-29T06:27:33;3.63;;;1.40;;
38851;SDS011;24605;50.092;9.182;2022-12-29T06:29:59;2.95;;;1.17;;
38851;SDS011;24605;50.092;9.182;2022-12-29T06:32:27;2.95;;;1.20;;
38851;SDS011;24605;50.092;9.182;2022-12-29T06:34:54;4.03;;;1.50;;
38851;SDS011;24605;50.092;9.182;2022-12-29T06:37:20;3.00;;;1.13;;
38851;SDS011;24605;50.092;9.182;2022-12-29T06:39:47;6.00;;;1.42;;
38851;SDS011;24605;50.092;9.182;2022-12-29T06:42:13;2.88;;;1.25;;
38851;SDS011;24605;50.092;9.182;2022-12-29T06:44:40;2.58;;;1.10;;
38851;SDS011;24605;50.092;9.182;2022-12-29T06:47:06;3.35;;;1.38;;
38851;SDS011;24605;50.092;9.182;2022-12-29T06:49:34;3.40;;;1.10;;
38851;SDS011;24605;50.092;9.182;2022-12-29T06:52:00;4.35;;;1.40;;
38851;SDS011;24605;50.092;9.182;2022-12-29T06:54:29;4.43;;;1.80;;
38851;SDS011;24605;50.092;9.182;2022-12-29T06:56:56;5.38;;;1.63;;
38851;SDS011;24605;50.092;9.182;2022-12-29T06:59:22;3.38;;;1.23;;
38851;SDS011;24605;50.092;9.182;2022-12-29T07:01:49;3.33;;;1.25;;
38851;SDS011;24605;50.092;9.182;2022-12-29T07:04:16;6.22;;;1.80;;
38851;SDS011;24605;50.092;9.182;2022-12-29T07:06:44;4.28;;;1.10;;
38851;SDS011;24605;50.092;9.182;2022-12-29T07:09:10;2.33;;;1.20;;
38851;SDS011;24605;50.092;9.182;2022-12-29T07:11:37;3.50;;;1.40;;
38851;SDS011;24605;50.092;9.182;2022-12-29T07:14:04;4.60;;;1.50;;
38851;SDS011;24605;50.092;9.182;2022-12-29T07:16:31;3.63;;;1.13;;
38851;SDS011;24605;50.092;9.182;2022-12-29T07:18:59;6.80;;;1.52;;
38851;SDS011;24605;50.092;9.182;2022-12-29T07:21:26;2.97;;;1.13;;
38851;SDS011;24605;50.092;9.182;2022-12-29T07:23:54;5.75;;;1.63;;
38851;SDS011;24605;50.092;9.182;2022-12-29T07:26:21;3.78;;;1.30;;
38851;SDS011;24605;50.092;9.182;2022-12-29T07:28:49;5.25;;;1.50;;
38851;SDS011;24605;50.092;9.182;2022-12-29T07:31:16;2.97;;;1.40;;
38851;SDS011;24605;50.092;9.182;2022-12-29T07:33:43;5.35;;;1.20;;
38851;SDS011;24605;50.092;9.182;2022-12-29T07:36:10;4.55;;;1.50;;
38851;SDS011;24605;50.092;9.182;2022-12-29T07:38:37;6.40;;;2.28;;
38851;SDS011;24605;50.092;9.182;2022-12-29T07:41:05;4.40;;;1.35;;
38851;SDS011;24605;50.092;9.182;2022-12-29T07:43:32;4.03;;;1.50;;
38851;SDS011;24605;50.092;9.182;2022-12-29T07:45:59;5.65;;;1.75;;
38851;SDS011;24605;50.092;9.182;2022-12-29T07:48:25;3.47;;;1.60;;
38851;SDS011;24605;50.092;9.182;2022-12-29T07:50:52;4.72;;;1.80;;
38851;SDS011;24605;50.092;9.182;2022-12-29T07:53:19;4.60;;;1.95;;
38851;SDS011;24605;50.092;9.182;2022-12-29T07:55:46;8.57;;;2.03;;
38851;SDS011;24605;50.092;9.182;2022-12-29T07:58:14;6.00;;;1.90;;
38851;SDS011;24605;50.092;9.182;2022-12-29T08:00:40;5.55;;;1.90;;
38851;SDS011;24605;50.092;9.182;2022-12-29T08:03:07;4.80;;;1.77;;
38851;SDS011;24605;50.092;9.182;2022-12-29T08:05:33;5.68;;;2.15;;
38851;SDS011;24605;50.092;9.182;2022-12-29T08:08:00;5.25;;;2.00;;
38851;SDS011;24605;50.092;9.182;2022-12-29T08:10:26;6.53;;;2.05;;
38851;SDS011;24605;50.092;9.182;2022-12-29T08:12:53;4.82;;;1.73;;
38851;SDS011;24605;50.092;9.182;2022-12-29T08:15:21;4.50;;;1.98;;
38851;SDS011;24605;50.092;9.182;2022-12-29T08:17:48;5.40;;;1.75;;
38851;SDS011;24605;50.092;9.182;2022-12-29T08:20:15;7.93;;;2.30;;
38851;SDS011;24605;50.092;9.182;2022-12-29T08:22:41;6.90;;;1.92;;
38851;SDS011;24605;50.092;9.182;2022-12-29T08:25:08;4.65;;;1.92;;
38851;SDS011;24605;50.092;9.182;2022-12-29T08:27:35;4.78;;;1.63;;
38851;SDS011;24605;50.092;9.182;2022-12-29T08:30:02;4.13;;;2.13;;
38851;SDS011;24605;50.092;9.182;2022-12-29T08:32:30;6.35;;;2.00;;
38851;SDS011;24605;50.092;9.182;2022-12-29T08:34:57;5.07;;;2.13;;
38851;SDS011;24605;50.092;9.182;2022-12-29T08:37:23;5.57;;;2.10;;
38851;SDS011;24605;50.092;9.182;2022-12-29T08:39:50;4.75;;;1.88;;
38851;SDS011;24605;50.092;9.182;2022-12-29T08:42:16;4.07;;;1.95;;
38851;SDS011;24605;50.092;9.182;2022-12-29T08:44:43;4.95;;;2.00;;
38851;SDS011;24605;50.092;9.182;2022-12-29T08:47:09;4.28;;;1.77;;
38851;SDS011;24605;50.092;9.182;2022-12-29T08:49:38;5.70;;;2.05;;
38851;SDS011;24605;50.092;9.182;2022-12-29T08:52:04;5.68;;;2.03;;
38851;SDS011;24605;50.092;9.182;2022-12-29T08:54:31;6.65;;;1.90;;
38851;SDS011;24605;50.092;9.182;2022-12-29T08:56:57;6.38;;;2.30;;
38851;SDS011;24605;50.092;9.182;2022-12-29T08:59:24;9.48;;;2.50;;
38851;SDS011;24605;50.092;9.182;2022-12-29T09:01:51;7.35;;;2.45;;
38851;SDS011;24605;50.092;9.182;2022-12-29T09:04:17;5.10;;;2.42;;
38851;SDS011;24605;50.092;9.182;2022-12-29T09:06:45;7.60;;;3.35;;
38851;SDS011;24605;50.092;9.182;2022-12-29T09:09:12;4.32;;;1.80;;
38851;SDS011;24605;50.092;9.182;2022-12-29T09:11:39;5.57;;;2.03;;
38851;SDS011;24605;50.092;9.182;2022-12-29T09:14:06;6.57;;;2.67;;
38851;SDS011;24605;50.092;9.182;2022-12-29T09:16:33;4.65;;;2.20;;
38851;SDS011;24605;50.092;9.182;2022-12-29T09:19:00;5.60;;;1.75;;
38851;SDS011;24605;50.092;9.182;2022-12-29T09:21:27;5.90;;;1.90;;
38851;SDS011;24605;50.092;9.182;2022-12-29T09:23:54;4.97;;;2.00;;
38851;SDS011;24605;50.092;9.182;2022-12-29T09:26:21;5.55;;;2.20;;
38851;SDS011;24605;50.092;9.182;2022-12-29T09:28:48;4.07;;;1.80;;
38851;SDS011;24605;50.092;9.182;2022-12-29T09:31:14;3.83;;;1.70;;
38851;SDS011;24605;50.092;9.182;2022-12-29T09:33:41;8.40;;;2.35;;
38851;SDS011;24605;50.092;9.182;2022-12-29T09:36:08;8.00;;;2.25;;
38851;SDS011;24605;50.092;9.182;2022-12-29T09:38:35;5.18;;;1.95;;
38851;SDS011;24605;50.092;9.182;2022-12-29T09:41:06;5.88;;;1.80;;
38851;SDS011;24605;50.092;9.182;2022-12-29T09:43:43;5.10;;;2.10;;
38851;SDS011;24605;50.092;9.182;2022-12-29T09:46:22;5.03;;;2.00;;
38851;SDS011;24605;50.092;9.182;2022-12-29T09:48:52;4.65;;;2.08;;
38851;SDS011;24605;50.092;9.182;2022-12-29T09:51:26;3.97;;;2.03;;
38851;SDS011;24605;50.092;9.182;2022-12-29T09:53:53;4.85;;;2.08;;
38851;SDS011;24605;50.092;9.182;2022-12-29T09:56:27;5.70;;;2.03;;
38851;SDS011;24605;50.092;9.182;2022-12-29T09:58:54;3.40;;;1.60;;
38851;SDS011;24605;50.092;9.182;2022-12-29T10:01:27;7.95;;;2.22;;
38851;SDS011;24605;50.092;9.182;2022-12-29T10:03:58;4.88;;;1.80;;
38851;SDS011;24605;50.092;9.182;2022-12-29T10:06:32;8.77;;;2.25;;
38851;SDS011;24605;50.092;9.182;2022-12-29T10:09:08;5.88;;;1.92;;
38851;SDS011;24605;50.092;9.182;2022-12-29T10:11:54;4.60;;;1.83;;
38851;SDS011;24605;50.092;9.182;2022-12-29T10:14:33;4.40;;;2.00;;
38851;SDS011;24605;50.092;9.182;2022-12-29T10:17:13;5.03;;;1.80;;
38851;SDS011;24605;50.092;9.182;2022-12-29T10:19:53;3.95;;;1.60;;
38851;SDS011;24605;50.092;9.182;2022-12-29T10:22:32;4.05;;;1.90;;
38851;SDS011;24605;50.092;9.182;2022-12-29T10:25:08;3.42;;;1.58;;
38851;SDS011;24605;50.092;9.182;2022-12-29T10:27:40;4.60;;;1.70;;
38851;SDS011;24605;50.092;9.182;2022-12-29T10:30:10;4.75;;;1.90;;
38851;SDS011;24605;50.092;9.182;2022-12-29T10:32:38;3.97;;;1.88;;
38851;SDS011;24605;50.092;9.182;2022-12-29T10:35:10;4.38;;;2.08;;
38851;SDS011;24605;50.092;9.182;2022-12-29T10:37:41;3.85;;;1.65;;
38851;SDS011;24605;50.092;9.182;2022-12-29T10:40:14;4.03;;;1.77;;
38851;SDS011;24605;50.092;9.182;2022-12-29T10:42:48;6.65;;;2.47;;
38851;SDS011;24605;50.092;9.182;2022-12-29T10:45:19;6.38;;;3.00;;
38851;SDS011;24605;50.092;9.182;2022-12-29T10:47:55;5.68;;;3.10;;
38851;SDS011;24605;50.092;9.182;2022-12-29T10:50:25;10.27;;;3.97;;
38851;SDS011;24605;50.092;9.182;2022-12-29T10:52:56;5.43;;;2.20;;
38851;SDS011;24605;50.092;9.182;2022-12-29T10:55:35;5.55;;;2.45;;
38851;SDS011;24605;50.092;9.182;2022-12-29T10:58:06;7.85;;;2.47;;
38851;SDS011;24605;50.092;9.182;2022-12-29T11:00:36;5.57;;;2.47;;
38851;SDS011;24605;50.092;9.182;2022-12-29T11:06:06;3.88;;;1.40;;
38851;SDS011;24605;50.092;9.182;2022-12-29T11:08:39;6.68;;;1.48;;
38851;SDS011;24605;50.092;9.182;2022-12-29T11:11:12;5.03;;;1.52;;
38851;SDS011;24605;50.092;9.182;2022-12-29T11:13:56;4.32;;;1.40;;
38851;SDS011;24605;50.092;9.182;2022-12-29T11:16:28;4.05;;;1.25;;
38851;SDS011;24605;50.092;9.182;2022-12-29T11:18:59;5.80;;;1.60;;
38851;SDS011;24605;50.092;9.182;2022-12-29T11:21:27;6.78;;;1.70;;
38851;SDS011;24605;50.092;9.182;2022-12-29T11:23:59;3.83;;;1.10;;
38851;SDS011;24605;50.092;9.182;2022-12-29T11:26:27;5.07;;;1.30;;
38851;SDS011;24605;50.092;9.182;2022-12-29T11:29:20;3.35;;;0.98;;
38851;SDS011;24605;50.092;9.182;2022-12-29T11:31:48;2.60;;;1.10;;
38851;SDS011;24605;50.092;9.182;2022-12-29T11:34:17;2.28;;;0.90;;
38851;SDS011;24605;50.092;9.182;2022-12-29T11:36:45;3.17;;;1.27;;
38851;SDS011;24605;50.092;9.182;2022-12-29T11:39:23;4.28;;;1.10;;
38851;SDS011;24605;50.092;9.182;2022-12-29T11:41:53;3.90;;;1.30;;
38851;SDS011;24605;50.092;9.182;2022-12-29T11:44:21;3.10;;;1.50;;
38851;SDS011;24605;50.092;9.182;2022-12-29T11:46:49;3.17;;;1.20;;
38851;SDS011;24605;50.092;9.182;2022-12-29T11:49:19;5.65;;;1.30;;
38851;SDS011;24605;50.092;9.182;2022-12-29T11:51:48;5.07;;;1.40;;
38851;SDS011;24605;50.092;9.182;2022-12-29T11:54:17;2.78;;;1.35;;
38851;SDS011;24605;50.092;9.182;2022-12-29T11:56:47;4.90;;;1.65;;
38851;SDS011;24605;50.092;9.182;2022-12-29T11:59:37;3.67;;;1.10;;
38851;SDS011;24605;50.092;9.182;2022-12-29T12:02:20;5.82;;;1.50;;
38851;SDS011;24605;50.092;9.182;2022-12-29T12:04:54;2.58;;;1.48;;
38851;SDS011;24605;50.092;9.182;2022-12-29T12:07:29;4.90;;;1.33;;
38851;SDS011;24605;50.092;9.182;2022-12-29T12:10:05;5.15;;;1.17;;
38851;SDS011;24605;50.092;9.182;2022-12-29T12:12:38;4.07;;;1.10;;
38851;SDS011;24605;50.092;9.182;2022-12-29T12:15:16;3.75;;;1.60;;
38851;SDS011;24605;50.092;9.182;2022-12-29T12:17:49;2.60;;;1.10;;
38851;SDS011;24605;50.092;9.182;2022-12-29T12:20:20;3.10;;;0.82;;
38851;SDS011;24605;50.092;9.182;2022-12-29T12:22:51;2.17;;;0.93;;
38851;SDS011;24605;50.092;9.182;2022-12-29T12:25:25;4.55;;;1.25;;
38851;SDS011;24605;50.092;9.182;2022-12-29T12:27:59;2.80;;;1.25;;
38851;SDS011;24605;50.092;9.182;2022-12-29T12:30:33;3.00;;;1.08;;
38851;SDS011;24605;50.092;9.182;2022-12-29T12:33:06;2.22;;;0.80;;
38851;SDS011;24605;50.092;9.182;2022-12-29T12:35:47;7.82;;;2.15;;
38851;SDS011;24605;50.092;9.182;2022-12-29T12:38:26;4.57;;;1.48;;
38851;SDS011;24605;50.092;9.182;2022-12-29T12:41:07;5.68;;;1.08;;
38851;SDS011;24605;50.092;9.182;2022-12-29T12:43:39;3.95;;;1.10;;
38851;SDS011;24605;50.092;9.182;2022-12-29T12:46:18;4.32;;;1.20;;
38851;SDS011;24605;50.092;9.182;2022-12-29T12:49:05;3.35;;;0.95;;
38851;SDS011;24605;50.092;9.182;2022-12-29T12:51:50;4.35;;;1.10;;
38851;SDS011;24605;50.092;9.182;2022-12-29T12:54:29;3.53;;;1.15;;
38851;SDS011;24605;50.092;9.182;2022-12-29T12:57:13;2.83;;;1.13;;
38851;SDS011;24605;50.092;9.182;2022-12-29T12:59:52;2.55;;;1.20;;
38851;SDS011;24605;50.092;9.182;2022-12-29T13:02:29;3.00;;;0.95;;
38851;SDS011;24605;50.092;9.182;2022-12-29T13:05:12;3.03;;;1.20;;
38851;SDS011;24605;50.092;9.182;2022-12-29T13:07:52;2.83;;;1.33;;
38851;SDS011;24605;50.092;9.182;2022-12-29T13:10:33;4.30;;;1.40;;
38851;SDS011;24605;50.092;9.182;2022-12-29T13:13:29;4.22;;;1.38;;
38851;SDS011;24605;50.092;9.182;2022-12-29T13:16:09;2.80;;;1.10;;
38851;SDS011;24605;50.092;9.182;2022-12-29T13:18:44;3.15;;;1.40;;
38851;SDS011;24605;50.092;9.182;2022-12-29T13:21:18;3.92;;;1.42;;
38851;SDS011;24605;50.092;9.182;2022-12-29T13:23:54;4.05;;;1.40;;
38851;SDS011;24605;50.092;9.182;2022-12-29T13:26:28;3.65;;;1.27;;
38851;SDS011;24605;50.092;9.182;2022-12-29T13:28:59;6.68;;;1.45;;
38851;SDS011;24605;50.092;9.182;2022-12-29T13:31:33;4.88;;;1.23;;
38851;SDS011;24605;50.092;9.182;2022-12-29T13:34:15;5.70;;;1.40;;
38851;SDS011;24605;50.092;9.182;2022-12-29T13:36:47;4.75;;;1.45;;
38851;SDS011;24605;50.092;9.182;2022-12-29T13:39:22;3.97;;;1.20;;
38851;SDS011;24605;50.092;9.182;2022-12-29T13:41:54;5.03;;;1.55;;
38851;SDS011;24605;50.092;9.182;2022-12-29T13:44:24;4.72;;;1.48;;
38851;SDS011;24605;50.092;9.182;2022-12-29T13:46:56;3.30;;;1.15;;
38851;SDS011;24605;50.092;9.182;2022-12-29T13:49:29;4.75;;;1.35;;
38851;SDS011;24605;50.092;9.182;2022-12-29T13:51:57;4.00;;;1.42;;
38851;SDS011;24605;50.092;9.182;2022-12-29T13:54:35;2.28;;;0.88;;
38851;SDS011;24605;50.092;9.182;2022-12-29T13:57:12;2.30;;;1.20;;
38851;SDS011;24605;50.092;9.182;2022-12-29T13:59:51;4.68;;;1.30;;
38851;SDS011;24605;50.092;9.182;2022-12-29T14:02:26;3.97;;;1.38;;
38851;SDS011;24605;50.092;9.182;2022-12-29T14:05:12;5.72;;;1.60;;
38851;SDS011;24605;50.092;9.182;2022-12-29T14:07:59;4.88;;;1.90;;
38851;SDS011;24605;50.092;9.182;2022-12-29T14:10:31;3.40;;;1.20;;
38851;SDS011;24605;50.092;9.182;2022-12-29T14:13:02;4.07;;;1.63;;
38851;SDS011;24605;50.092;9.182;2022-12-29T14:15:31;4.68;;;1.40;;
38851;SDS011;24605;50.092;9.182;2022-12-29T14:18:03;7.70;;;1.60;;
38851;SDS011;24605;50.092;9.182;2022-12-29T14:20:38;4.68;;;1.38;;
38851;SDS011;24605;50.092;9.182;2022-12-29T14:23:17;3.58;;;1.10;;
38851;SDS011;24605;50.092;9.182;2022-12-29T14:25:56;3.72;;;1.10;;
38851;SDS011;24605;50.092;9.182;2022-12-29T14:28:36;6.30;;;1.25;;
38851;SDS011;24605;50.092;9.182;2022-12-29T14:31:07;5.05;;;1.42;;
38851;SDS011;24605;50.092;9.182;2022-12-29T14:34:15;7.40;;;1.75;;
38851;SDS011;24605;50.092;9.182;2022-12-29T14:36:58;6.82;;;1.67;;
38851;SDS011;24605;50.092;9.182;2022-12-29T14:39:31;5.57;;;1.80;;
38851;SDS011;24605;50.092;9.182;2022-12-29T14:42:02;6.32;;;2.03;;
38851;SDS011;24605;50.092;9.182;2022-12-29T14:44:32;7.10;;;2.05;;
38851;SDS011;24605;50.092;9.182;2022-12-29T14:47:03;4.45;;;1.77;;
38851;SDS011;24605;50.092;9.182;2022-12-29T14:49:42;4.90;;;1.95;;
38851;SDS011;24605;50.092;9.182;2022-12-29T14:52:14;4.85;;;1.50;;
38851;SDS011;24605;50.092;9.182;2022-12-29T14:54:50;4.35;;;1.80;;
38851;SDS011;24605;50.092;9.182;2022-12-29T14:57:20;4.40;;;1.50;;
38851;SDS011;24605;50.092;9.182;2022-12-29T14:59:52;3.95;;;1.55;;
38851;SDS011;24605;50.092;9.182;2022-12-29T15:02:23;5.70;;;1.70;;
38851;SDS011;24605;50.092;9.182;2022-12-29T15:04:53;4.47;;;1.50;;
38851;SDS011;24605;50.092;9.182;2022-12-29T15:07:27;5.33;;;1.40;;
38851;SDS011;24605;50.092;9.182;2022-12-29T15:09:57;8.20;;;2.10;;
38851;SDS011;24605;50.092;9.182;2022-12-29T15:12:33;6.40;;;1.83;;
38851;SDS011;24605;50.092;9.182;2022-12-29T15:15:17;6.28;;;1.40;;
38851;SDS011;24605;50.092;9.182;2022-12-29T15:17:46;2.60;;;0.98;;
38851;SDS011;24605;50.092;9.182;2022-12-29T15:20:20;5.60;;;1.45;;
38851;SDS011;24605;50.092;9.182;2022-12-29T15:22:52;3.67;;;1.27;;
38851;SDS011;24605;50.092;9.182;2022-12-29T15:25:21;6.03;;;2.00;;
38851;SDS011;24605;50.092;9.182;2022-12-29T15:27:50;4.03;;;1.30;;
38851;SDS011;24605;50.092;9.182;2022-12-29T15:30:19;7.22;;;1.30;;
38851;SDS011;24605;50.092;9.182;2022-12-29T15:32:47;6.18;;;2.00;;
38851;SDS011;24605;50.092;9.182;2022-12-29T15:35:23;6.43;;;2.53;;
38851;SDS011;24605;50.092;9.182;2022-12-29T15:37:56;5.90;;;1.70;;
38851;SDS011;24605;50.092;9.182;2022-12-29T15:40:24;4.95;;;1.52;;
38851;SDS011;24605;50.092;9.182;2022-12-29T15:42:58;11.63;;;4.97;;
38851;SDS011;24605;50.092;9.182;2022-12-29T15:45:36;5.47;;;2.45;;
38851;SDS011;24605;50.092;9.182;2022-12-29T15:48:04;4.53;;;1.70;;
38851;SDS011;24605;50.092;9.182;2022-12-29T15:50:39;4.35;;;1.80;;
38851;SDS011;24605;50.092;9.182;2022-12-29T15:53:11;8.25;;;1.70;;
38851;SDS011;24605;50.092;9.182;2022-12-29T15:55:44;5.78;;;1.80;;
38851;SDS011;24605;50.092;9.182;2022-12-29T15:58:18;7.05;;;2.17;;
38851;SDS011;24605;50.092;9.182;2022-12-29T16:00:48;6.32;;;2.28;;
38851;SDS011;24605;50.092;9.182;2022-12-29T16:03:18;6.40;;;2.42;;
38851;SDS011;24605;50.092;9.182;2022-12-29T16:05:49;6.57;;;2.95;;
38851;SDS011;24605;50.092;9.182;2022-12-29T16:08:23;6.70;;;2.88;;
38851;SDS011;24605;50.092;9.182;2022-12-29T16:10:54;10.27;;;4.80;;
38851;SDS011;24605;50.092;9.182;2022-12-29T16:13:24;7.10;;;2.40;;
38851;SDS011;24605;50.092;9.182;2022-12-29T16:15:55;6.80;;;2.53;;
38851;SDS011;24605;50.092;9.182;2022-12-29T16:18:26;8.73;;;2.63;;
38851;SDS011;24605;50.092;9.182;2022-12-29T16:20:55;7.90;;;2.50;;
38851;SDS011;24605;50.092;9.182;2022-12-29T16:23:25;5.65;;;2.00;;
38851;SDS011;24605;50.092;9.182;2022-12-29T16:25:53;4.88;;;1.92;;
38851;SDS011;24605;50.092;9.182;2022-12-29T16:28:23;5.57;;;1.50;;
38851;SDS011;24605;50.092;9.182;2022-12-29T16:30:57;11.13;;;2.80;;
38851;SDS011;24605;50.092;9.182;2022-12-29T16:33:30;8.73;;;2.70;;